createdAt,value
2023-05-03T00:02:12.524Z,101705.53
2023-05-03T00:04:39.470Z,101703.75
2023-05-03T00:07:06.857Z,101712.03
2023-05-03T00:09:34.962Z,101706.31
2023-05-03T00:12:01.992Z,101707.56
2023-05-03T00:14:28.841Z,101705.78
2023-05-03T00:16:55.728Z,101708.94
2023-05-03T00:19:31.474Z,101716.34
2023-05-03T00:21:58.863Z,101704.91
2023-05-03T00:24:25.615Z,101703.72
2023-05-03T00:26:52.211Z,101701.94
2023-05-03T00:29:21.156Z,101710.41
2023-05-03T00:31:47.779Z,101707.53
2023-05-03T00:34:14.470Z,101705.66
2023-05-03T00:36:41.066Z,101702.38
2023-05-03T00:39:07.801Z,101705.97
2023-05-03T00:41:34.530Z,101704.75
2023-05-03T00:44:01.198Z,101695.69
2023-05-03T00:46:28.010Z,101698.59
2023-05-03T00:48:55.173Z,101690.78
2023-05-03T00:51:22.778Z,101682.13
2023-05-03T00:53:49.965Z,101695.19
2023-05-03T00:56:25.724Z,101690.03
2023-05-03T00:58:52.620Z,101690.03
2023-05-03T01:01:19.347Z,101687.59
2023-05-03T01:03:46.920Z,101673.00
2023-05-03T01:06:25.420Z,101679.84
2023-05-03T01:09:02.200Z,101671.47
2023-05-03T01:11:42.230Z,101672.69
2023-05-03T01:14:41.239Z,101671.06
2023-05-03T01:17:15.413Z,101668.47
2023-05-03T01:19:56.445Z,101673.22
2023-05-03T01:22:37.477Z,101671.44
2023-05-03T01:25:09.195Z,101673.53
2023-05-03T01:27:37.093Z,101667.56
2023-05-03T01:30:12.558Z,101668.00
2023-05-03T01:32:42.169Z,101664.13
2023-05-03T01:35:15.884Z,101666.22
2023-05-03T01:37:43.294Z,101669.13
2023-05-03T01:40:16.715Z,101666.66
2023-05-03T01:42:44.062Z,101659.66
2023-05-03T01:45:12.136Z,101663.38
2023-05-03T01:47:38.874Z,101661.75
2023-05-03T01:50:05.936Z,101656.84
2023-05-03T01:52:33.146Z,101659.13
2023-05-03T01:55:00.365Z,101655.03
2023-05-03T01:57:27.061Z,101659.19
2023-05-03T01:59:53.714Z,101660.69
2023-05-03T02:02:20.657Z,101661.72
2023-05-03T02:04:47.469Z,101667.91
2023-05-03T02:07:14.300Z,101662.75
2023-05-03T02:09:41.276Z,101672.25
2023-05-03T02:12:08.189Z,101671.28
2023-05-03T02:14:34.945Z,101677.66
2023-05-03T02:17:03.187Z,101678.94
2023-05-03T02:19:30.056Z,101668.44
2023-05-03T02:21:57.127Z,101674.44
2023-05-03T02:24:23.816Z,101676.94
2023-05-03T02:26:50.968Z,101678.22
2023-05-03T02:29:17.864Z,101679.91
2023-05-03T02:31:45.367Z,101671.72
2023-05-03T02:34:12.370Z,101677.50
2023-05-03T02:36:39.308Z,101687.00
2023-05-03T02:39:05.990Z,101686.38
2023-05-03T02:41:33.285Z,101687.38
2023-05-03T02:44:00.990Z,101686.63
2023-05-03T02:46:27.830Z,101689.09
2023-05-03T02:48:54.494Z,101683.59
2023-05-03T02:51:21.222Z,101689.53
2023-05-03T02:53:48.142Z,101689.75
2023-05-03T02:56:14.929Z,101687.88
2023-05-03T02:58:41.672Z,101697.34
2023-05-03T03:01:08.512Z,101699.41
2023-05-03T03:03:35.312Z,101699.03
2023-05-03T03:06:02.265Z,101703.38
2023-05-03T03:08:29.046Z,101696.59
2023-05-03T03:10:59.915Z,101706.06
2023-05-03T03:13:26.567Z,101708.59
2023-05-03T03:15:53.390Z,101695.81
2023-05-03T03:18:20.122Z,101691.28
2023-05-03T03:20:46.912Z,101696.44
2023-05-03T03:23:13.551Z,101686.75
2023-05-03T03:25:41.858Z,101691.69
2023-05-03T03:28:08.796Z,101683.53
2023-05-03T03:30:35.971Z,101684.34
2023-05-03T03:33:16.351Z,101684.94
2023-05-03T03:35:43.230Z,101688.88
2023-05-03T03:38:11.597Z,101690.13
2023-05-03T03:40:45.277Z,101684.38
2023-05-03T03:43:11.971Z,101681.69
2023-05-03T03:45:39.987Z,101680.88
2023-05-03T03:48:07.382Z,101683.13
2023-05-03T03:50:34.500Z,101685.59
2023-05-03T03:53:01.380Z,101684.13
2023-05-03T03:55:28.471Z,101680.81
2023-05-03T03:57:57.806Z,101686.75
2023-05-03T04:00:26.226Z,101677.72
2023-05-03T04:03:04.092Z,101681.41
2023-05-03T04:05:32.675Z,101680.59
2023-05-03T04:07:59.505Z,101685.31
2023-05-03T04:10:28.995Z,101680.56
2023-05-03T04:12:55.982Z,101683.44
2023-05-03T04:15:22.880Z,101684.88
2023-05-03T04:17:50.512Z,101685.50
2023-05-03T04:20:17.757Z,101683.22
2023-05-03T04:22:47.756Z,101688.41
2023-05-03T04:25:17.382Z,101698.66
2023-05-03T04:27:49.514Z,101686.25
2023-05-03T04:30:17.523Z,101697.97
2023-05-03T04:32:48.431Z,101691.50
2023-05-03T04:35:15.881Z,101688.63
2023-05-03T04:37:46.893Z,101692.34
2023-05-03T04:40:19.721Z,101685.47
2023-05-03T04:42:52.053Z,101690.91
2023-05-03T04:45:20.797Z,101697.88
2023-05-03T04:47:48.329Z,101697.28
2023-05-03T04:50:15.078Z,101695.84
2023-05-03T04:52:45.196Z,101697.06
2023-05-03T04:55:12.593Z,101707.31
2023-05-03T04:57:39.294Z,101708.50
2023-05-03T05:00:11.928Z,101706.88
2023-05-03T05:02:43.724Z,101704.88
2023-05-03T05:05:11.339Z,101704.28
2023-05-03T05:07:38.080Z,101701.59
2023-05-03T05:10:05.713Z,101703.63
2023-05-03T05:12:32.864Z,101694.97
2023-05-03T05:15:02.283Z,101701.63
2023-05-03T05:17:29.317Z,101706.66
2023-05-03T05:19:56.272Z,101699.25
2023-05-03T05:22:22.914Z,101710.34
2023-05-03T05:24:55.221Z,101710.34
2023-05-03T05:27:23.777Z,101709.41
2023-05-03T05:29:52.621Z,101710.94
2023-05-03T05:32:20.047Z,101714.66
2023-05-03T05:34:53.003Z,101714.22
2023-05-03T05:37:23.875Z,101714.09
2023-05-03T05:39:51.419Z,101707.41
2023-05-03T05:42:19.928Z,101705.69
2023-05-03T05:44:46.632Z,101706.28
2023-05-03T05:47:13.659Z,101718.88
2023-05-03T05:49:43.676Z,101723.88
2023-05-03T05:52:11.655Z,101726.38
2023-05-03T05:54:38.893Z,101712.00
2023-05-03T05:57:05.703Z,101724.69
2023-05-03T05:59:32.402Z,101718.88
2023-05-03T06:02:00.342Z,101718.72
2023-05-03T06:04:27.832Z,101712.16
2023-05-03T06:06:56.091Z,101708.28
2023-05-03T06:09:24.749Z,101704.56
2023-05-03T06:11:57.422Z,101710.25
2023-05-03T06:14:26.233Z,101704.53
2023-05-03T06:16:53.870Z,101703.50
2023-05-03T06:19:20.970Z,101700.00
2023-05-03T06:21:47.813Z,101694.25
2023-05-03T06:24:21.046Z,101684.50
2023-05-03T06:26:50.510Z,101683.53
2023-05-03T06:29:18.306Z,101690.75
2023-05-03T06:31:45.598Z,101693.34
2023-05-03T06:34:13.176Z,101690.63
2023-05-03T06:36:41.821Z,101688.22
2023-05-03T06:39:09.570Z,101687.19
2023-05-03T06:41:36.222Z,101688.16
2023-05-03T06:44:04.293Z,101691.28
2023-05-03T06:46:31.460Z,101691.31
2023-05-03T06:48:58.256Z,101695.94
2023-05-03T06:51:30.289Z,101704.31
2023-05-03T06:54:01.924Z,101701.97
2023-05-03T06:56:28.677Z,101699.56
2023-05-03T06:58:55.510Z,101703.91
2023-05-03T07:01:23.250Z,101698.66
2023-05-03T07:03:50.126Z,101699.28
2023-05-03T07:06:16.950Z,101703.06
2023-05-03T07:08:43.964Z,101702.25
2023-05-03T07:11:10.916Z,101700.25
2023-05-03T07:13:37.561Z,101694.91
2023-05-03T07:16:04.511Z,101699.56
2023-05-03T07:18:31.324Z,101697.47
2023-05-03T07:20:57.942Z,101686.53
2023-05-03T07:23:25.396Z,101687.97
2023-05-03T07:25:53.965Z,101689.13
2023-05-03T07:28:20.629Z,101690.78
2023-05-03T07:30:47.283Z,101673.66
2023-05-03T07:33:14.056Z,101668.88
2023-05-03T07:35:40.788Z,101679.91
2023-05-03T07:38:07.541Z,101677.44
2023-05-03T07:40:34.412Z,101675.34
2023-05-03T07:43:01.308Z,101683.56
2023-05-03T07:45:28.136Z,101681.16
2023-05-03T07:47:56.952Z,101683.47
2023-05-03T07:50:23.695Z,101686.53
2023-05-03T07:52:51.815Z,101680.31
2023-05-03T07:55:20.105Z,101682.31
2023-05-03T07:57:46.841Z,101685.13
2023-05-03T08:00:14.108Z,101682.56
2023-05-03T08:02:41.258Z,101686.84
2023-05-03T08:05:09.976Z,101682.81
2023-05-03T08:07:36.971Z,101681.09
2023-05-03T08:10:04.611Z,101680.84
2023-05-03T08:12:32.704Z,101673.41
2023-05-03T08:14:59.536Z,101670.75
2023-05-03T08:17:26.397Z,101671.34
2023-05-03T08:19:55.747Z,101668.78
2023-05-03T08:22:25.274Z,101671.25
2023-05-03T08:24:53.508Z,101666.69
2023-05-03T08:27:20.095Z,101666.03
2023-05-03T08:29:47.221Z,101651.53
2023-05-03T08:32:14.268Z,101664.03
2023-05-03T08:34:41.448Z,101656.38
2023-05-03T08:37:08.177Z,101659.22
2023-05-03T08:39:34.887Z,101648.59
2023-05-03T08:42:07.178Z,101649.22
2023-05-03T08:44:38.116Z,101646.16
2023-05-03T08:47:06.177Z,101635.59
2023-05-03T08:49:35.257Z,101640.81
2023-05-03T08:52:02.807Z,101643.38
2023-05-03T08:54:29.608Z,101641.47
2023-05-03T08:56:56.215Z,101635.31
2023-05-03T08:59:22.927Z,101627.88
2023-05-03T09:01:49.540Z,101628.53
2023-05-03T09:04:17.358Z,101612.19
2023-05-03T09:06:44.159Z,101612.06
2023-05-03T09:09:11.054Z,101611.28
2023-05-03T09:11:39.192Z,101611.34
2023-05-03T09:14:17.111Z,101616.72
2023-05-03T09:16:45.475Z,101612.72
2023-05-03T09:19:14.058Z,101610.53
2023-05-03T09:21:42.151Z,101604.56
2023-05-03T09:24:17.151Z,101597.19
2023-05-03T09:26:45.546Z,101596.53
2023-05-03T09:29:30.584Z,101592.53
2023-05-03T09:32:06.290Z,101586.69
2023-05-03T09:34:33.967Z,101589.50
2023-05-03T09:37:00.933Z,101582.88
2023-05-03T09:39:27.741Z,101579.53
2023-05-03T09:41:54.466Z,101573.72
2023-05-03T09:44:41.373Z,101565.63
2023-05-03T09:47:08.222Z,101570.31
2023-05-03T09:49:36.931Z,101571.88
2023-05-03T09:52:04.656Z,101567.53
2023-05-03T09:54:31.545Z,101564.16
2023-05-03T09:56:59.183Z,101555.13
2023-05-03T09:59:25.860Z,101565.34
2023-05-03T10:01:56.508Z,101561.31
2023-05-03T10:04:26.572Z,101547.88
2023-05-03T10:07:07.714Z,101555.38
2023-05-03T10:09:40.239Z,101552.81
2023-05-03T10:12:16.417Z,101544.78
2023-05-03T10:14:48.450Z,101541.28
2023-05-03T10:17:42.942Z,101541.03
2023-05-03T10:20:23.044Z,101530.25
2023-05-03T10:23:05.119Z,101524.78
2023-05-03T10:25:33.249Z,101524.03
2023-05-03T10:28:12.039Z,101517.50
2023-05-03T10:30:40.480Z,101513.34
2023-05-03T10:33:10.295Z,101514.66
2023-05-03T10:35:40.403Z,101512.06
2023-05-03T10:38:17.529Z,101512.03
2023-05-03T10:40:44.587Z,101507.31
2023-05-03T10:43:32.459Z,101509.47
2023-05-03T10:46:06.565Z,101495.88
2023-05-03T10:48:34.644Z,101499.84
2023-05-03T10:51:36.569Z,101495.09
2023-05-03T10:54:03.434Z,101491.22
2023-05-03T10:56:30.088Z,101493.00
2023-05-03T10:58:58.825Z,101495.78
2023-05-03T11:01:28.008Z,101493.16
2023-05-03T11:04:36.738Z,101488.22
2023-05-03T11:07:04.623Z,101491.75
2023-05-03T11:09:35.177Z,101486.03
2023-05-03T11:12:06.887Z,101478.13
2023-05-03T11:14:33.757Z,101468.66
2023-05-03T11:17:01.295Z,101471.03
2023-05-03T11:19:28.921Z,101461.22
2023-05-03T11:21:56.253Z,101463.38
2023-05-03T11:24:22.964Z,101457.22
2023-05-03T11:26:49.602Z,101453.59
2023-05-03T11:29:17.696Z,101453.47
2023-05-03T11:31:44.703Z,101447.34
2023-05-03T11:34:12.753Z,101446.09
2023-05-03T11:36:40.798Z,101441.72
2023-05-03T11:39:08.109Z,101438.31
2023-05-03T11:41:35.612Z,101438.88
2023-05-03T11:44:15.123Z,101431.53
2023-05-03T11:46:45.874Z,101432.34
2023-05-03T11:49:17.874Z,101434.81
2023-05-03T11:51:47.861Z,101430.59
2023-05-03T11:54:25.300Z,101436.97
2023-05-03T11:56:57.896Z,101437.69
2023-05-03T11:59:39.065Z,101437.91
2023-05-03T12:02:07.938Z,101442.31
2023-05-03T12:04:41.394Z,101433.22
2023-05-03T12:07:11.287Z,101430.63
2023-05-03T12:09:40.951Z,101427.41
2023-05-03T12:12:10.473Z,101429.22
2023-05-03T12:15:27.042Z,101427.91
2023-05-03T12:18:00.200Z,101420.69
2023-05-03T12:23:05.158Z,101426.34
2023-05-03T12:25:34.100Z,101432.91
2023-05-03T12:28:19.412Z,101425.91
2023-05-03T12:30:47.074Z,101423.22
2023-05-03T12:33:16.262Z,101419.41
2023-05-03T12:35:46.678Z,101423.94
2023-05-03T12:38:16.673Z,101424.03
2023-05-03T12:40:45.556Z,101427.47
2023-05-03T12:43:12.715Z,101419.63
2023-05-03T12:45:40.903Z,101421.75
2023-05-03T12:48:09.160Z,101424.81
2023-05-03T12:50:38.867Z,101415.09
2023-05-03T12:53:09.313Z,101417.56
2023-05-03T12:55:43.212Z,101417.56
2023-05-03T13:00:53.535Z,101412.63
2023-05-03T13:03:33.487Z,101412.47
2023-05-03T13:06:12.505Z,101406.84
2023-05-03T13:08:48.802Z,101406.69
2023-05-03T13:11:19.285Z,101407.72
2023-05-03T13:13:46.665Z,101398.34
2023-05-03T13:16:14.500Z,101392.50
2023-05-03T13:18:42.840Z,101386.91
2023-05-03T13:21:10.538Z,101388.66
2023-05-03T13:23:39.350Z,101384.75
2023-05-03T13:26:07.110Z,101379.72
2023-05-03T13:28:34.375Z,101371.09
2023-05-03T13:31:01.841Z,101374.81
2023-05-03T13:33:29.363Z,101364.47
2023-05-03T13:35:56.626Z,101359.47
2023-05-03T13:38:23.398Z,101366.06
2023-05-03T13:40:50.159Z,101357.22
2023-05-03T13:43:17.028Z,101351.72
2023-05-03T13:45:43.814Z,101345.59
2023-05-03T13:48:10.743Z,101343.69
2023-05-03T13:50:45.610Z,101334.28
2023-05-03T13:53:12.297Z,101333.13
2023-05-03T13:55:39.035Z,101328.34
2023-05-03T13:58:05.745Z,101331.66
2023-05-03T14:00:32.627Z,101326.84
2023-05-03T14:02:59.422Z,101332.00
2023-05-03T14:05:26.468Z,101334.59
2023-05-03T14:07:53.358Z,101330.75
2023-05-03T14:10:20.199Z,101327.69
2023-05-03T14:12:47.225Z,101332.50
2023-05-03T14:15:15.009Z,101330.91
2023-05-03T14:17:43.659Z,101323.06
2023-05-03T14:20:12.125Z,101316.13
2023-05-03T14:22:41.584Z,101310.47
2023-05-03T14:25:08.451Z,101317.03
2023-05-03T14:27:35.235Z,101311.28
2023-05-03T14:30:02.542Z,101309.19
2023-05-03T14:32:37.229Z,101306.44
2023-05-03T14:35:04.237Z,101310.59
2023-05-03T14:37:31.292Z,101314.00
2023-05-03T14:39:58.752Z,101300.81
2023-05-03T14:42:30.264Z,101303.22
2023-05-03T14:45:00.126Z,101303.41
2023-05-03T14:47:27.471Z,101299.03
2023-05-03T14:49:54.558Z,101296.47
2023-05-03T14:52:21.322Z,101287.81
2023-05-03T14:54:48.265Z,101294.63
2023-05-03T14:57:15.136Z,101287.66
2023-05-03T14:59:42.170Z,101284.91
2023-05-03T15:02:10.194Z,101289.09
2023-05-03T15:04:40.419Z,101280.09
2023-05-03T15:07:07.482Z,101283.78
2023-05-03T15:09:36.189Z,101276.41
2023-05-03T15:12:03.942Z,101271.25
2023-05-03T15:14:31.277Z,101276.56
2023-05-03T15:16:58.221Z,101269.84
2023-05-03T15:19:26.731Z,101268.09
2023-05-03T15:21:53.684Z,101268.56
2023-05-03T15:24:21.717Z,101278.88
2023-05-03T15:26:48.582Z,101276.63
2023-05-03T15:29:16.126Z,101274.34
2023-05-03T15:31:43.713Z,101268.53
2023-05-03T15:34:13.169Z,101271.25
2023-05-03T15:36:40.791Z,101260.94
2023-05-03T15:39:07.855Z,101258.19
2023-05-03T15:41:34.599Z,101252.72
2023-05-03T15:44:05.236Z,101254.84
2023-05-03T15:46:32.813Z,101262.13
2023-05-03T15:48:59.708Z,101261.16
2023-05-03T15:51:27.771Z,101252.00
2023-05-03T15:53:54.564Z,101252.47
2023-05-03T15:56:24.517Z,101248.63
2023-05-03T15:58:51.659Z,101251.22
2023-05-03T16:01:19.300Z,101248.94
2023-05-03T16:03:46.283Z,101240.25
2023-05-03T16:06:17.855Z,101241.88
2023-05-03T16:08:45.076Z,101245.41
2023-05-03T16:11:12.842Z,101243.31
2023-05-03T16:13:39.652Z,101235.91
2023-05-03T16:16:06.984Z,101236.41
2023-05-03T16:18:34.012Z,101240.06
2023-05-03T16:21:01.738Z,101235.19
2023-05-03T16:23:28.568Z,101236.47
2023-05-03T16:25:55.214Z,101231.00
2023-05-03T16:28:22.231Z,101224.59
2023-05-03T16:30:48.854Z,101226.84
2023-05-03T16:33:15.624Z,101221.38
2023-05-03T16:35:42.360Z,101217.84
2023-05-03T16:38:09.012Z,101215.41
2023-05-03T16:40:36.951Z,101209.78
2023-05-03T16:43:06.420Z,101208.19
2023-05-03T16:45:33.291Z,101199.91
2023-05-03T16:48:01.376Z,101210.31
2023-05-03T16:50:45.157Z,101213.19
2023-05-03T16:53:12.274Z,101214.44
2023-05-03T16:56:12.866Z,101203.19
2023-05-03T17:05:47.128Z,101212.09
2023-05-03T17:12:25.145Z,101212.59
2023-05-03T17:14:51.999Z,101212.09
2023-05-03T17:17:18.763Z,101219.28
2023-05-03T17:19:45.523Z,101220.13
2023-05-03T17:22:12.175Z,101218.22
2023-05-03T17:24:38.967Z,101220.59
2023-05-03T17:27:09.440Z,101218.47
2023-05-03T17:29:36.544Z,101222.41
2023-05-03T17:32:04.038Z,101226.38
2023-05-03T17:34:31.281Z,101222.25
2023-05-03T17:36:59.241Z,101221.25
2023-05-03T17:39:26.036Z,101221.88
2023-05-03T17:41:53.884Z,101227.91
2023-05-03T17:44:22.959Z,101232.97
2023-05-03T17:46:50.275Z,101234.19
2023-05-03T17:49:17.223Z,101240.81
2023-05-03T17:51:44.067Z,101243.03
2023-05-03T17:54:10.752Z,101250.06
2023-05-03T17:56:37.424Z,101245.44
2023-05-03T17:59:04.145Z,101239.97
2023-05-03T18:01:30.978Z,101244.16
2023-05-03T18:03:57.896Z,101245.16
2023-05-03T18:06:24.806Z,101251.28
2023-05-03T18:08:51.801Z,101249.25
2023-05-03T18:11:18.838Z,101261.28
2023-05-03T18:13:45.905Z,101258.13
2023-05-03T18:16:12.779Z,101254.91
2023-05-03T18:18:39.627Z,101255.94
2023-05-03T18:21:06.671Z,101258.66
2023-05-03T18:23:35.491Z,101253.28
2023-05-03T18:26:02.374Z,101258.19
2023-05-03T18:28:29.803Z,101265.94
2023-05-03T18:30:56.659Z,101262.84
2023-05-03T18:33:23.881Z,101259.16
2023-05-03T18:35:52.310Z,101266.06
2023-05-03T18:38:21.389Z,101278.25
2023-05-03T18:40:49.441Z,101277.81
2023-05-03T18:43:17.070Z,101280.81
2023-05-03T18:45:45.600Z,101280.59
2023-05-03T18:48:12.697Z,101286.16
2023-05-03T18:50:39.764Z,101287.44
2023-05-03T18:53:06.828Z,101281.28
2023-05-03T18:55:33.764Z,101287.88
2023-05-03T18:58:00.677Z,101283.84
2023-05-03T19:00:27.842Z,101289.00
2023-05-03T19:02:54.609Z,101291.56
2023-05-03T19:05:21.432Z,101289.47
2023-05-03T19:07:48.741Z,101292.81
2023-05-03T19:10:16.286Z,101296.38
2023-05-03T19:12:44.278Z,101296.69
2023-05-03T19:15:12.233Z,101293.97
2023-05-03T19:17:41.868Z,101298.88
2023-05-03T19:20:10.491Z,101300.53
2023-05-03T19:22:37.774Z,101304.41
2023-05-03T19:25:05.506Z,101305.22
2023-05-03T19:27:34.321Z,101309.84
2023-05-03T19:30:01.163Z,101313.88
2023-05-03T19:32:28.186Z,101305.47
2023-05-03T19:34:55.020Z,101308.25
2023-05-03T19:37:21.828Z,101309.38
2023-05-03T19:39:48.623Z,101318.63
2023-05-03T19:42:15.759Z,101309.44
2023-05-03T19:44:42.440Z,101310.84
2023-05-03T19:47:09.221Z,101315.19
2023-05-03T19:49:36.004Z,101312.47
2023-05-03T19:52:04.670Z,101310.38
2023-05-03T19:54:32.964Z,101313.94
2023-05-03T19:57:06.462Z,101314.50
2023-05-03T19:59:33.989Z,101317.22
2023-05-03T20:02:00.918Z,101308.09
2023-05-03T20:04:27.739Z,101308.63
2023-05-03T20:06:54.381Z,101312.72
2023-05-03T20:09:23.421Z,101313.00
2023-05-03T20:11:51.369Z,101310.34
2023-05-03T20:14:18.664Z,101313.09
2023-05-03T20:16:45.458Z,101313.63
2023-05-03T20:19:13.267Z,101316.38
2023-05-03T20:21:40.015Z,101315.31
2023-05-03T20:24:10.689Z,101308.84
2023-05-03T20:26:41.235Z,101305.09
2023-05-03T20:29:09.124Z,101307.84
2023-05-03T20:31:38.779Z,101307.84
2023-05-03T20:34:05.420Z,101304.09
2023-05-03T20:36:32.685Z,101297.91
2023-05-03T20:38:59.688Z,101295.47
2023-05-03T20:41:26.762Z,101296.56
2023-05-03T20:43:54.914Z,101286.84
2023-05-03T20:46:21.895Z,101293.31
2023-05-03T20:48:48.875Z,101290.09
2023-05-03T20:51:15.644Z,101290.63
2023-05-03T20:53:42.541Z,101290.38
2023-05-03T20:56:09.430Z,101291.72
2023-05-03T20:58:36.377Z,101291.19
2023-05-03T21:01:08.254Z,101288.22
2023-05-03T21:03:35.303Z,101289.56
2023-05-03T21:06:02.638Z,101293.91
2023-05-03T21:08:29.296Z,101290.16
2023-05-03T21:10:56.356Z,101289.06
2023-05-03T21:13:23.113Z,101297.44
2023-05-03T21:15:50.920Z,101289.34
2023-05-03T21:18:18.835Z,101295.28
2023-05-03T21:20:45.746Z,101297.44
2023-05-03T21:23:13.334Z,101296.09
2023-05-03T21:25:40.115Z,101293.41
2023-05-03T21:28:06.953Z,101293.41
2023-05-03T21:30:33.605Z,101291.75
2023-05-03T21:33:03.031Z,101283.13
2023-05-03T21:35:29.797Z,101287.44
2023-05-03T21:37:56.625Z,101288.78
2023-05-03T21:40:23.509Z,101281.75
2023-05-03T21:42:52.508Z,101286.31
2023-05-03T21:45:19.840Z,101286.31
2023-05-03T21:47:46.915Z,101284.97
2023-05-03T21:50:14.136Z,101282.53
2023-05-03T21:52:41.379Z,101278.75
2023-05-03T21:55:08.933Z,101267.66
2023-05-03T21:57:36.828Z,101265.22
2023-05-03T22:00:05.622Z,101260.88
2023-05-03T22:02:35.474Z,101270.06
2023-05-03T22:05:02.503Z,101267.34
2023-05-03T22:07:29.362Z,101259.50
2023-05-03T22:09:56.057Z,101258.97
2023-05-03T22:12:24.587Z,101263.28
2023-05-03T22:14:52.645Z,101253.28
2023-05-03T22:17:19.988Z,101254.88
2023-05-03T22:19:46.893Z,101253.78
2023-05-03T22:22:13.538Z,101251.91
2023-05-03T22:24:41.031Z,101257.00
2023-05-03T22:27:07.827Z,101255.66
2023-05-03T22:29:34.457Z,101258.06
2023-05-03T22:32:01.258Z,101262.34
2023-05-03T22:34:27.975Z,101258.56
2023-05-03T22:36:54.871Z,101261.00
2023-05-03T22:39:21.997Z,101253.97
2023-05-03T22:41:48.629Z,101258.00
2023-05-03T22:44:15.466Z,101261.25
2023-05-03T22:46:42.694Z,101254.25
2023-05-03T22:49:09.834Z,101251.56
2023-05-03T22:51:36.557Z,101254.75
2023-05-03T22:54:03.321Z,101245.53
2023-05-03T22:56:30.107Z,101244.19
2023-05-03T22:58:56.762Z,101240.66
2023-05-03T23:01:26.015Z,101249.28
2023-05-03T23:03:52.804Z,101243.28
2023-05-03T23:06:19.594Z,101240.03
2023-05-03T23:08:46.367Z,101244.56
2023-05-03T23:11:13.512Z,101243.47
2023-05-03T23:13:40.371Z,101235.66
2023-05-03T23:16:07.978Z,101238.38
2023-05-03T23:18:34.638Z,101238.63
2023-05-03T23:21:01.670Z,101240.50
2023-05-03T23:23:29.022Z,101236.69
2023-05-03T23:25:56.016Z,101240.47
2023-05-03T23:28:22.988Z,101238.00
2023-05-03T23:30:50.930Z,101245.28
2023-05-03T23:33:18.045Z,101246.38
2023-05-03T23:35:47.732Z,101245.28
2023-05-03T23:38:14.771Z,101241.47
2023-05-03T23:40:41.662Z,101247.38
2023-05-03T23:43:08.615Z,101245.47
2023-05-03T23:45:35.665Z,101249.25
2023-05-03T23:48:02.612Z,101247.34
2023-05-03T23:50:29.266Z,101240.28
2023-05-03T23:52:56.050Z,101238.09
2023-05-03T23:55:22.762Z,101236.50
2023-05-03T23:57:50.600Z,101241.56
